aviador You're here:

LFRI Decoded Metar

LA ROCHE-SUR-YON in FRANCE
Report Time2017-08-18 23:30:00
UTC Time2017-08-18 23:38:33
Flight Rules vfr VFR
Wind280° at 06 kt
W.Decomp.*RWY 28: 6.0 kt HW 0.2 kt RCW
W.Rank280° ranks 5
Current wind is below 280° avg. (8.0)
Visibility9999 m
Phenomena:N/A
Clouds:N/A
Expected CloudBase > 800 ft AGL from Temp-Dew spread
CeilingNone
Temp13°C (ISA -1)
Dew Point11°C (88% RH)
AAT11.2°C
QNH1022 hPa
Density Alt7 ft
Elevation299 ft
Report Wrong Elevation
Raw Report
METAR LFRI 182330Z AUTO 28006KT 250V310 CAVOK 13/11 Q1022=

Extra information for LFRI:More info

Metar Taf Metar & Taf Last 4 Metars F.Rules Stats Wind Profile Meteogram Temp Stats Airport Information Weather charts Add Link Nearby VenuesMetar ALERT Operation Metar Decoded Social comments